sensor_id;sensor_type;location;lat;lon;timestamp;P1;durP1;ratioP1;P2;durP2;ratioP2
16977;SDS011;8605;52.548;4.918;2023-03-14T00:02:12;17.27;;;2.97;;
16977;SDS011;8605;52.548;4.918;2023-03-14T00:07:15;11.53;;;2.63;;
16977;SDS011;8605;52.548;4.918;2023-03-14T00:17:45;9.77;;;3.07;;
16977;SDS011;8605;52.548;4.918;2023-03-14T00:22:48;14.87;;;6.60;;
16977;SDS011;8605;52.548;4.918;2023-03-14T00:27:52;7.20;;;3.50;;
16977;SDS011;8605;52.548;4.918;2023-03-14T00:32:55;11.57;;;2.87;;
16977;SDS011;8605;52.548;4.918;2023-03-14T00:37:58;10.43;;;2.90;;
16977;SDS011;8605;52.548;4.918;2023-03-14T00:43:02;12.93;;;3.17;;
16977;SDS011;8605;52.548;4.918;2023-03-14T00:48:05;20.60;;;5.33;;
16977;SDS011;8605;52.548;4.918;2023-03-14T00:53:08;10.27;;;4.13;;
16977;SDS011;8605;52.548;4.918;2023-03-14T00:58:13;17.63;;;3.53;;
16977;SDS011;8605;52.548;4.918;2023-03-14T01:03:17;16.70;;;6.13;;
16977;SDS011;8605;52.548;4.918;2023-03-14T01:08:20;17.33;;;3.93;;
16977;SDS011;8605;52.548;4.918;2023-03-14T01:13:24;13.07;;;3.77;;
16977;SDS011;8605;52.548;4.918;2023-03-14T01:18:27;13.70;;;5.43;;
16977;SDS011;8605;52.548;4.918;2023-03-14T01:23:30;17.97;;;8.93;;
16977;SDS011;8605;52.548;4.918;2023-03-14T01:28:34;20.40;;;5.33;;
16977;SDS011;8605;52.548;4.918;2023-03-14T01:39:04;11.33;;;3.97;;
16977;SDS011;8605;52.548;4.918;2023-03-14T01:44:11;31.43;;;5.93;;
16977;SDS011;8605;52.548;4.918;2023-03-14T01:49:21;20.43;;;5.17;;
16977;SDS011;8605;52.548;4.918;2023-03-14T01:54:47;21.00;;;6.17;;
16977;SDS011;8605;52.548;4.918;2023-03-14T01:59:52;15.27;;;4.97;;
16977;SDS011;8605;52.548;4.918;2023-03-14T02:04:57;20.57;;;5.30;;
16977;SDS011;8605;52.548;4.918;2023-03-14T02:10:07;17.77;;;4.60;;
16977;SDS011;8605;52.548;4.918;2023-03-14T02:15:12;26.20;;;6.27;;
16977;SDS011;8605;52.548;4.918;2023-03-14T02:20:32;14.37;;;4.83;;
16977;SDS011;8605;52.548;4.918;2023-03-14T02:25:38;22.40;;;5.13;;
16977;SDS011;8605;52.548;4.918;2023-03-14T02:30:45;22.87;;;9.57;;
16977;SDS011;8605;52.548;4.918;2023-03-14T02:35:50;20.47;;;6.17;;
16977;SDS011;8605;52.548;4.918;2023-03-14T02:40:55;20.73;;;4.67;;
16977;SDS011;8605;52.548;4.918;2023-03-14T02:46:01;16.27;;;4.47;;
16977;SDS011;8605;52.548;4.918;2023-03-14T02:51:05;23.43;;;5.23;;
16977;SDS011;8605;52.548;4.918;2023-03-14T02:56:11;12.87;;;4.00;;
16977;SDS011;8605;52.548;4.918;2023-03-14T03:01:15;10.07;;;4.17;;
16977;SDS011;8605;52.548;4.918;2023-03-14T03:06:18;17.93;;;4.27;;
16977;SDS011;8605;52.548;4.918;2023-03-14T03:11:21;19.17;;;6.20;;
16977;SDS011;8605;52.548;4.918;2023-03-14T03:16:25;24.90;;;5.27;;
16977;SDS011;8605;52.548;4.918;2023-03-14T03:21:28;17.80;;;7.60;;
16977;SDS011;8605;52.548;4.918;2023-03-14T03:26:31;8.33;;;3.27;;
16977;SDS011;8605;52.548;4.918;2023-03-14T03:31:39;10.37;;;6.00;;
16977;SDS011;8605;52.548;4.918;2023-03-14T03:36:43;21.43;;;4.23;;
16977;SDS011;8605;52.548;4.918;2023-03-14T03:41:47;21.83;;;4.63;;
16977;SDS011;8605;52.548;4.918;2023-03-14T03:46:52;11.90;;;4.30;;
16977;SDS011;8605;52.548;4.918;2023-03-14T03:51:56;13.73;;;4.23;;
16977;SDS011;8605;52.548;4.918;2023-03-14T03:56:59;12.07;;;4.33;;
16977;SDS011;8605;52.548;4.918;2023-03-14T04:02:03;13.10;;;5.17;;
16977;SDS011;8605;52.548;4.918;2023-03-14T04:07:06;14.67;;;5.37;;
16977;SDS011;8605;52.548;4.918;2023-03-14T04:12:10;13.63;;;5.13;;
16977;SDS011;8605;52.548;4.918;2023-03-14T04:17:29;16.97;;;3.70;;
16977;SDS011;8605;52.548;4.918;2023-03-14T04:22:35;11.63;;;5.03;;
16977;SDS011;8605;52.548;4.918;2023-03-14T04:27:40;10.60;;;4.57;;
16977;SDS011;8605;52.548;4.918;2023-03-14T04:32:52;13.10;;;5.43;;
16977;SDS011;8605;52.548;4.918;2023-03-14T04:37:58;8.03;;;5.13;;
16977;SDS011;8605;52.548;4.918;2023-03-14T04:43:04;12.00;;;5.77;;
16977;SDS011;8605;52.548;4.918;2023-03-14T04:48:10;9.50;;;5.30;;
16977;SDS011;8605;52.548;4.918;2023-03-14T04:53:14;8.23;;;4.70;;
16977;SDS011;8605;52.548;4.918;2023-03-14T04:58:19;11.13;;;5.13;;
16977;SDS011;8605;52.548;4.918;2023-03-14T05:03:27;11.97;;;4.77;;
16977;SDS011;8605;52.548;4.918;2023-03-14T05:08:47;9.30;;;4.73;;
16977;SDS011;8605;52.548;4.918;2023-03-14T05:14:10;6.23;;;3.73;;
16977;SDS011;8605;52.548;4.918;2023-03-14T05:20:11;4.77;;;4.07;;
16977;SDS011;8605;52.548;4.918;2023-03-14T05:25:37;7.10;;;2.50;;
16977;SDS011;8605;52.548;4.918;2023-03-14T05:30:50;3.70;;;3.50;;
16977;SDS011;8605;52.548;4.918;2023-03-14T05:36:14;0.90;;;0.90;;
16977;SDS011;8605;52.548;4.918;2023-03-14T05:41:49;1.13;;;1.13;;
16977;SDS011;8605;52.548;4.918;2023-03-14T05:47:12;0.90;;;0.90;;
16977;SDS011;8605;52.548;4.918;2023-03-14T05:52:16;2.30;;;2.20;;
16977;SDS011;8605;52.548;4.918;2023-03-14T05:57:49;1.20;;;1.20;;
16977;SDS011;8605;52.548;4.918;2023-03-14T06:03:10;1.10;;;1.10;;
16977;SDS011;8605;52.548;4.918;2023-03-14T06:08:19;1.10;;;1.10;;
16977;SDS011;8605;52.548;4.918;2023-03-14T06:13:22;1.10;;;1.10;;
16977;SDS011;8605;52.548;4.918;2023-03-14T06:18:25;1.20;;;1.20;;
16977;SDS011;8605;52.548;4.918;2023-03-14T06:23:31;1.40;;;1.40;;
16977;SDS011;8605;52.548;4.918;2023-03-14T06:28:36;2.53;;;2.40;;
16977;SDS011;8605;52.548;4.918;2023-03-14T06:33:39;1.20;;;1.20;;
16977;SDS011;8605;52.548;4.918;2023-03-14T06:38:57;1.07;;;1.07;;
16977;SDS011;8605;52.548;4.918;2023-03-14T06:44:02;5.40;;;2.50;;
16977;SDS011;8605;52.548;4.918;2023-03-14T06:49:07;1.37;;;1.37;;
16977;SDS011;8605;52.548;4.918;2023-03-14T06:54:11;1.10;;;1.10;;
16977;SDS011;8605;52.548;4.918;2023-03-14T06:59:15;1.00;;;1.00;;
16977;SDS011;8605;52.548;4.918;2023-03-14T07:04:31;0.90;;;0.90;;
16977;SDS011;8605;52.548;4.918;2023-03-14T07:09:36;0.90;;;0.90;;
16977;SDS011;8605;52.548;4.918;2023-03-14T07:14:39;0.90;;;0.90;;
16977;SDS011;8605;52.548;4.918;2023-03-14T07:19:43;1.10;;;1.10;;
16977;SDS011;8605;52.548;4.918;2023-03-14T07:24:47;1.10;;;1.10;;
16977;SDS011;8605;52.548;4.918;2023-03-14T07:29:50;1.00;;;1.00;;
16977;SDS011;8605;52.548;4.918;2023-03-14T07:34:53;1.00;;;1.00;;
16977;SDS011;8605;52.548;4.918;2023-03-14T07:39:57;0.80;;;0.80;;
16977;SDS011;8605;52.548;4.918;2023-03-14T07:45:04;1.10;;;1.10;;
16977;SDS011;8605;52.548;4.918;2023-03-14T07:50:09;1.00;;;1.00;;
16977;SDS011;8605;52.548;4.918;2023-03-14T07:55:14;1.00;;;1.00;;
16977;SDS011;8605;52.548;4.918;2023-03-14T08:00:17;3.10;;;2.93;;
16977;SDS011;8605;52.548;4.918;2023-03-14T08:05:20;1.10;;;1.10;;
16977;SDS011;8605;52.548;4.918;2023-03-14T08:10:25;1.10;;;1.10;;
16977;SDS011;8605;52.548;4.918;2023-03-14T08:15:29;1.00;;;1.00;;
16977;SDS011;8605;52.548;4.918;2023-03-14T08:20:33;1.33;;;1.33;;
16977;SDS011;8605;52.548;4.918;2023-03-14T08:25:37;1.07;;;1.07;;
16977;SDS011;8605;52.548;4.918;2023-03-14T08:30:41;1.00;;;1.00;;
16977;SDS011;8605;52.548;4.918;2023-03-14T08:35:47;1.20;;;1.20;;
16977;SDS011;8605;52.548;4.918;2023-03-14T08:40:56;1.73;;;1.67;;
16977;SDS011;8605;52.548;4.918;2023-03-14T08:46:00;4.63;;;4.23;;
16977;SDS011;8605;52.548;4.918;2023-03-14T08:51:04;1.10;;;1.10;;
16977;SDS011;8605;52.548;4.918;2023-03-14T08:56:10;1.23;;;1.23;;
16977;SDS011;8605;52.548;4.918;2023-03-14T09:01:13;1.23;;;1.23;;
16977;SDS011;8605;52.548;4.918;2023-03-14T09:06:16;1.10;;;1.10;;
16977;SDS011;8605;52.548;4.918;2023-03-14T09:11:20;3.17;;;2.93;;
16977;SDS011;8605;52.548;4.918;2023-03-14T09:16:24;1.10;;;1.10;;
16977;SDS011;8605;52.548;4.918;2023-03-14T09:21:27;0.90;;;0.90;;
16977;SDS011;8605;52.548;4.918;2023-03-14T09:26:31;1.10;;;1.10;;
16977;SDS011;8605;52.548;4.918;2023-03-14T09:31:34;1.43;;;1.43;;
16977;SDS011;8605;52.548;4.918;2023-03-14T09:36:37;1.37;;;1.37;;
16977;SDS011;8605;52.548;4.918;2023-03-14T09:41:42;3.67;;;3.47;;
16977;SDS011;8605;52.548;4.918;2023-03-14T09:46:47;6.90;;;3.77;;
16977;SDS011;8605;52.548;4.918;2023-03-14T09:51:54;1.00;;;1.00;;
16977;SDS011;8605;52.548;4.918;2023-03-14T09:56:59;39.43;;;5.90;;
16977;SDS011;8605;52.548;4.918;2023-03-14T10:02:04;1.03;;;1.03;;
16977;SDS011;8605;52.548;4.918;2023-03-14T10:07:17;2.80;;;2.60;;
16977;SDS011;8605;52.548;4.918;2023-03-14T10:12:31;0.90;;;0.90;;
16977;SDS011;8605;52.548;4.918;2023-03-14T10:17:38;1.00;;;1.00;;
16977;SDS011;8605;52.548;4.918;2023-03-14T10:22:42;2.23;;;2.03;;
16977;SDS011;8605;52.548;4.918;2023-03-14T10:27:46;1.87;;;1.87;;
16977;SDS011;8605;52.548;4.918;2023-03-14T10:32:49;8.47;;;3.47;;
16977;SDS011;8605;52.548;4.918;2023-03-14T10:37:53;1.07;;;1.07;;
16977;SDS011;8605;52.548;4.918;2023-03-14T10:43:00;1.00;;;1.00;;
16977;SDS011;8605;52.548;4.918;2023-03-14T10:48:16;0.90;;;0.90;;
16977;SDS011;8605;52.548;4.918;2023-03-14T10:53:21;1.00;;;1.00;;
16977;SDS011;8605;52.548;4.918;2023-03-14T10:58:31;0.90;;;0.90;;
16977;SDS011;8605;52.548;4.918;2023-03-14T11:03:36;1.10;;;1.10;;
16977;SDS011;8605;52.548;4.918;2023-03-14T11:08:42;1.20;;;1.20;;
16977;SDS011;8605;52.548;4.918;2023-03-14T11:13:54;0.80;;;0.80;;
16977;SDS011;8605;52.548;4.918;2023-03-14T11:19:08;1.33;;;1.33;;
16977;SDS011;8605;52.548;4.918;2023-03-14T11:24:23;0.70;;;0.70;;
16977;SDS011;8605;52.548;4.918;2023-03-14T11:29:35;0.80;;;0.80;;
16977;SDS011;8605;52.548;4.918;2023-03-14T11:34:43;0.63;;;0.63;;
16977;SDS011;8605;52.548;4.918;2023-03-14T11:39:51;3.53;;;3.33;;
16977;SDS011;8605;52.548;4.918;2023-03-14T11:45:00;0.60;;;0.60;;
16977;SDS011;8605;52.548;4.918;2023-03-14T11:50:04;0.50;;;0.50;;
16977;SDS011;8605;52.548;4.918;2023-03-14T11:55:17;0.60;;;0.60;;
16977;SDS011;8605;52.548;4.918;2023-03-14T12:00:25;0.60;;;0.60;;
16977;SDS011;8605;52.548;4.918;2023-03-14T12:10:49;0.50;;;0.50;;
16977;SDS011;8605;52.548;4.918;2023-03-14T12:15:55;0.40;;;0.40;;
16977;SDS011;8605;52.548;4.918;2023-03-14T12:21:02;0.40;;;0.40;;
16977;SDS011;8605;52.548;4.918;2023-03-14T12:26:07;0.50;;;0.50;;
16977;SDS011;8605;52.548;4.918;2023-03-14T12:36:54;0.30;;;0.30;;
16977;SDS011;8605;52.548;4.918;2023-03-14T12:42:02;0.40;;;0.40;;
16977;SDS011;8605;52.548;4.918;2023-03-14T12:52:47;0.30;;;0.30;;
16977;SDS011;8605;52.548;4.918;2023-03-14T12:57:57;0.40;;;0.40;;
16977;SDS011;8605;52.548;4.918;2023-03-14T13:03:15;2.27;;;2.17;;
16977;SDS011;8605;52.548;4.918;2023-03-14T13:08:35;0.30;;;0.30;;
16977;SDS011;8605;52.548;4.918;2023-03-14T13:13:42;0.30;;;0.30;;
16977;SDS011;8605;52.548;4.918;2023-03-14T13:18:48;0.30;;;0.30;;
16977;SDS011;8605;52.548;4.918;2023-03-14T13:23:58;0.30;;;0.30;;
16977;SDS011;8605;52.548;4.918;2023-03-14T13:29:08;0.47;;;0.47;;
16977;SDS011;8605;52.548;4.918;2023-03-14T13:34:11;0.30;;;0.30;;
16977;SDS011;8605;52.548;4.918;2023-03-14T13:39:18;0.40;;;0.40;;
16977;SDS011;8605;52.548;4.918;2023-03-14T13:44:24;0.30;;;0.30;;
16977;SDS011;8605;52.548;4.918;2023-03-14T13:49:28;0.30;;;0.30;;
16977;SDS011;8605;52.548;4.918;2023-03-14T13:54:35;0.30;;;0.30;;
16977;SDS011;8605;52.548;4.918;2023-03-14T13:59:38;0.63;;;0.63;;
16977;SDS011;8605;52.548;4.918;2023-03-14T14:04:40;0.20;;;0.20;;
16977;SDS011;8605;52.548;4.918;2023-03-14T14:09:45;0.30;;;0.30;;
16977;SDS011;8605;52.548;4.918;2023-03-14T14:14:51;0.20;;;0.20;;
16977;SDS011;8605;52.548;4.918;2023-03-14T14:19:57;0.20;;;0.20;;
16977;SDS011;8605;52.548;4.918;2023-03-14T14:25:02;0.20;;;0.20;;
16977;SDS011;8605;52.548;4.918;2023-03-14T14:30:06;0.20;;;0.20;;
16977;SDS011;8605;52.548;4.918;2023-03-14T14:35:31;0.20;;;0.20;;
16977;SDS011;8605;52.548;4.918;2023-03-14T14:40:40;15.60;;;1.80;;
16977;SDS011;8605;52.548;4.918;2023-03-14T14:45:46;0.20;;;0.20;;
16977;SDS011;8605;52.548;4.918;2023-03-14T14:50:59;7.90;;;4.33;;
16977;SDS011;8605;52.548;4.918;2023-03-14T14:56:06;0.27;;;0.27;;
16977;SDS011;8605;52.548;4.918;2023-03-14T15:01:11;0.20;;;0.20;;
16977;SDS011;8605;52.548;4.918;2023-03-14T15:06:16;0.20;;;0.20;;
16977;SDS011;8605;52.548;4.918;2023-03-14T15:11:21;0.20;;;0.20;;
16977;SDS011;8605;52.548;4.918;2023-03-14T15:16:27;0.20;;;0.20;;
16977;SDS011;8605;52.548;4.918;2023-03-14T15:21:31;0.20;;;0.20;;
16977;SDS011;8605;52.548;4.918;2023-03-14T15:26:35;0.20;;;0.20;;
16977;SDS011;8605;52.548;4.918;2023-03-14T15:31:39;8.63;;;2.60;;
16977;SDS011;8605;52.548;4.918;2023-03-14T15:36:42;0.20;;;0.20;;
16977;SDS011;8605;52.548;4.918;2023-03-14T15:41:46;0.30;;;0.30;;
16977;SDS011;8605;52.548;4.918;2023-03-14T15:46:49;0.53;;;0.53;;
16977;SDS011;8605;52.548;4.918;2023-03-14T15:51:52;0.20;;;0.20;;
16977;SDS011;8605;52.548;4.918;2023-03-14T15:56:59;0.20;;;0.20;;
16977;SDS011;8605;52.548;4.918;2023-03-14T16:02:02;0.20;;;0.20;;
16977;SDS011;8605;52.548;4.918;2023-03-14T16:07:05;5.20;;;3.80;;
16977;SDS011;8605;52.548;4.918;2023-03-14T16:12:10;0.20;;;0.20;;
16977;SDS011;8605;52.548;4.918;2023-03-14T16:17:13;5.20;;;0.87;;
16977;SDS011;8605;52.548;4.918;2023-03-14T16:22:16;0.20;;;0.20;;
16977;SDS011;8605;52.548;4.918;2023-03-14T16:27:20;0.20;;;0.20;;
16977;SDS011;8605;52.548;4.918;2023-03-14T16:32:23;0.20;;;0.20;;
16977;SDS011;8605;52.548;4.918;2023-03-14T16:37:26;0.20;;;0.20;;
16977;SDS011;8605;52.548;4.918;2023-03-14T16:42:30;0.40;;;0.40;;
16977;SDS011;8605;52.548;4.918;2023-03-14T16:47:35;0.20;;;0.20;;
16977;SDS011;8605;52.548;4.918;2023-03-14T16:52:38;0.40;;;0.40;;
16977;SDS011;8605;52.548;4.918;2023-03-14T16:57:42;0.20;;;0.20;;
16977;SDS011;8605;52.548;4.918;2023-03-14T17:02:45;0.40;;;0.40;;
16977;SDS011;8605;52.548;4.918;2023-03-14T17:07:48;0.20;;;0.20;;
16977;SDS011;8605;52.548;4.918;2023-03-14T17:12:52;0.20;;;0.20;;
16977;SDS011;8605;52.548;4.918;2023-03-14T17:17:55;0.20;;;0.20;;
16977;SDS011;8605;52.548;4.918;2023-03-14T17:22:58;0.20;;;0.20;;
16977;SDS011;8605;52.548;4.918;2023-03-14T17:28:03;0.20;;;0.20;;
16977;SDS011;8605;52.548;4.918;2023-03-14T17:33:06;5.53;;;1.40;;
16977;SDS011;8605;52.548;4.918;2023-03-14T17:38:09;0.43;;;0.43;;
16977;SDS011;8605;52.548;4.918;2023-03-14T17:43:13;0.20;;;0.20;;
16977;SDS011;8605;52.548;4.918;2023-03-14T17:48:16;0.20;;;0.20;;
16977;SDS011;8605;52.548;4.918;2023-03-14T17:53:19;0.30;;;0.30;;
16977;SDS011;8605;52.548;4.918;2023-03-14T17:58:23;3.67;;;1.70;;
16977;SDS011;8605;52.548;4.918;2023-03-14T18:03:27;0.20;;;0.20;;
16977;SDS011;8605;52.548;4.918;2023-03-14T18:08:30;0.20;;;0.20;;
16977;SDS011;8605;52.548;4.918;2023-03-14T18:13:34;0.20;;;0.20;;
16977;SDS011;8605;52.548;4.918;2023-03-14T18:18:39;1.70;;;1.23;;
16977;SDS011;8605;52.548;4.918;2023-03-14T18:23:42;0.20;;;0.20;;
16977;SDS011;8605;52.548;4.918;2023-03-14T18:28:46;0.20;;;0.20;;
16977;SDS011;8605;52.548;4.918;2023-03-14T18:33:49;0.37;;;0.37;;
16977;SDS011;8605;52.548;4.918;2023-03-14T18:38:53;0.20;;;0.20;;
16977;SDS011;8605;52.548;4.918;2023-03-14T18:43:58;0.20;;;0.20;;
16977;SDS011;8605;52.548;4.918;2023-03-14T18:49:01;0.20;;;0.20;;
16977;SDS011;8605;52.548;4.918;2023-03-14T18:54:05;0.10;;;0.10;;
16977;SDS011;8605;52.548;4.918;2023-03-14T18:59:12;0.20;;;0.20;;
16977;SDS011;8605;52.548;4.918;2023-03-14T19:04:15;0.20;;;0.20;;
16977;SDS011;8605;52.548;4.918;2023-03-14T19:09:18;0.57;;;0.57;;
16977;SDS011;8605;52.548;4.918;2023-03-14T19:14:23;0.10;;;0.10;;
16977;SDS011;8605;52.548;4.918;2023-03-14T19:19:25;0.20;;;0.20;;
16977;SDS011;8605;52.548;4.918;2023-03-14T19:24:28;0.10;;;0.10;;
16977;SDS011;8605;52.548;4.918;2023-03-14T19:29:33;0.20;;;0.20;;
16977;SDS011;8605;52.548;4.918;2023-03-14T19:34:41;0.10;;;0.10;;
16977;SDS011;8605;52.548;4.918;2023-03-14T19:39:44;0.20;;;0.20;;
16977;SDS011;8605;52.548;4.918;2023-03-14T19:44:49;0.10;;;0.10;;
16977;SDS011;8605;52.548;4.918;2023-03-14T19:49:53;0.20;;;0.20;;
16977;SDS011;8605;52.548;4.918;2023-03-14T19:54:58;0.30;;;0.30;;
16977;SDS011;8605;52.548;4.918;2023-03-14T20:00:04;0.20;;;0.20;;
16977;SDS011;8605;52.548;4.918;2023-03-14T20:05:12;0.10;;;0.10;;
16977;SDS011;8605;52.548;4.918;2023-03-14T20:10:15;0.20;;;0.20;;
16977;SDS011;8605;52.548;4.918;2023-03-14T20:15:20;0.10;;;0.10;;
16977;SDS011;8605;52.548;4.918;2023-03-14T20:20:24;0.20;;;0.20;;
16977;SDS011;8605;52.548;4.918;2023-03-14T20:25:27;0.10;;;0.10;;
16977;SDS011;8605;52.548;4.918;2023-03-14T20:30:32;0.50;;;0.50;;
16977;SDS011;8605;52.548;4.918;2023-03-14T20:35:35;0.10;;;0.10;;
16977;SDS011;8605;52.548;4.918;2023-03-14T20:40:39;0.20;;;0.20;;
16977;SDS011;8605;52.548;4.918;2023-03-14T20:45:43;0.20;;;0.20;;
16977;SDS011;8605;52.548;4.918;2023-03-14T20:50:47;0.20;;;0.20;;
16977;SDS011;8605;52.548;4.918;2023-03-14T20:55:51;0.57;;;0.57;;
16977;SDS011;8605;52.548;4.918;2023-03-14T21:00:57;0.40;;;0.40;;
16977;SDS011;8605;52.548;4.918;2023-03-14T21:06:17;0.10;;;0.10;;
16977;SDS011;8605;52.548;4.918;2023-03-14T21:11:22;0.20;;;0.20;;
16977;SDS011;8605;52.548;4.918;2023-03-14T21:16:27;0.10;;;0.10;;
16977;SDS011;8605;52.548;4.918;2023-03-14T21:21:29;0.20;;;0.20;;
16977;SDS011;8605;52.548;4.918;2023-03-14T21:26:32;0.10;;;0.10;;
16977;SDS011;8605;52.548;4.918;2023-03-14T21:31:37;0.20;;;0.20;;
16977;SDS011;8605;52.548;4.918;2023-03-14T21:36:40;0.10;;;0.10;;
16977;SDS011;8605;52.548;4.918;2023-03-14T21:41:42;0.10;;;0.10;;
16977;SDS011;8605;52.548;4.918;2023-03-14T21:46:47;0.20;;;0.20;;
16977;SDS011;8605;52.548;4.918;2023-03-14T21:51:51;0.10;;;0.10;;
16977;SDS011;8605;52.548;4.918;2023-03-14T21:56:54;0.10;;;0.10;;
16977;SDS011;8605;52.548;4.918;2023-03-14T22:02:01;0.20;;;0.20;;
16977;SDS011;8605;52.548;4.918;2023-03-14T22:07:06;0.20;;;0.20;;
16977;SDS011;8605;52.548;4.918;2023-03-14T22:12:10;0.10;;;0.10;;
16977;SDS011;8605;52.548;4.918;2023-03-14T22:17:18;0.10;;;0.10;;
16977;SDS011;8605;52.548;4.918;2023-03-14T22:22:21;0.10;;;0.10;;
16977;SDS011;8605;52.548;4.918;2023-03-14T22:27:24;0.17;;;0.17;;
16977;SDS011;8605;52.548;4.918;2023-03-14T22:32:29;0.20;;;0.20;;
16977;SDS011;8605;52.548;4.918;2023-03-14T22:37:32;0.10;;;0.10;;
16977;SDS011;8605;52.548;4.918;2023-03-14T22:42:34;0.63;;;0.63;;
16977;SDS011;8605;52.548;4.918;2023-03-14T22:47:39;0.10;;;0.10;;
16977;SDS011;8605;52.548;4.918;2023-03-14T22:52:41;0.40;;;0.40;;
16977;SDS011;8605;52.548;4.918;2023-03-14T22:57:44;0.10;;;0.10;;
16977;SDS011;8605;52.548;4.918;2023-03-14T23:02:49;1.37;;;1.30;;
16977;SDS011;8605;52.548;4.918;2023-03-14T23:07:52;1.57;;;1.47;;
16977;SDS011;8605;52.548;4.918;2023-03-14T23:12:55;0.20;;;0.20;;
16977;SDS011;8605;52.548;4.918;2023-03-14T23:17:59;0.17;;;0.17;;
16977;SDS011;8605;52.548;4.918;2023-03-14T23:23:03;0.10;;;0.10;;
16977;SDS011;8605;52.548;4.918;2023-03-14T23:28:08;0.20;;;0.20;;
16977;SDS011;8605;52.548;4.918;2023-03-14T23:33:12;0.20;;;0.20;;
16977;SDS011;8605;52.548;4.918;2023-03-14T23:38:15;0.10;;;0.10;;
16977;SDS011;8605;52.548;4.918;2023-03-14T23:43:18;0.20;;;0.20;;
16977;SDS011;8605;52.548;4.918;2023-03-14T23:48:23;0.20;;;0.20;;
16977;SDS011;8605;52.548;4.918;2023-03-14T23:53:28;0.10;;;0.10;;
16977;SDS011;8605;52.548;4.918;2023-03-14T23:58:31;0.10;;;0.10;;
